createdAt,value
2019-02-03T00:00:05.550Z,37.10
2019-02-03T00:02:34.969Z,39.03
2019-02-03T00:05:04.392Z,39.97
2019-02-03T00:07:33.334Z,36.37
2019-02-03T00:10:02.172Z,39.83
2019-02-03T00:12:31.085Z,37.67
2019-02-03T00:14:59.982Z,39.03
2019-02-03T00:17:29.251Z,37.13
2019-02-03T00:19:58.127Z,37.30
2019-02-03T00:22:26.988Z,35.60
2019-02-03T00:24:56.193Z,35.73
2019-02-03T00:27:25.491Z,36.27
2019-02-03T00:29:54.363Z,35.87
2019-02-03T00:32:23.263Z,35.60
2019-02-03T00:34:52.130Z,34.00
2019-02-03T00:37:21.798Z,34.23
2019-02-03T00:39:51.172Z,34.03
2019-02-03T00:42:20.079Z,34.87
2019-02-03T00:44:49.447Z,36.37
2019-02-03T00:47:18.315Z,36.07
2019-02-03T00:49:47.341Z,33.67
2019-02-03T00:52:16.430Z,35.00
2019-02-03T00:54:45.305Z,37.00
2019-02-03T00:57:14.608Z,35.20
2019-02-03T00:59:43.803Z,35.47
2019-02-03T01:02:26.139Z,35.57
2019-02-03T01:04:54.994Z,35.00
2019-02-03T01:07:27.542Z,34.33
2019-02-03T01:10:00.706Z,34.70
2019-02-03T01:12:29.583Z,34.27
2019-02-03T01:14:58.524Z,35.10
2019-02-03T01:17:37.051Z,35.30
2019-02-03T01:20:06.862Z,35.97
2019-02-03T01:22:36.251Z,34.40
2019-02-03T01:25:06.660Z,36.33
2019-02-03T01:27:35.983Z,37.40
2019-02-03T01:30:05.489Z,36.63
2019-02-03T01:32:34.449Z,35.73
2019-02-03T01:35:03.762Z,38.00
2019-02-03T01:37:39.403Z,36.23
2019-02-03T01:40:04.400Z,36.27
2019-02-03T01:42:33.260Z,35.00
2019-02-03T01:45:13.686Z,36.07
2019-02-03T01:47:42.576Z,35.20
2019-02-03T01:50:12.315Z,34.93
2019-02-03T01:52:41.636Z,37.17
2019-02-03T01:55:11.564Z,36.20
2019-02-03T01:57:40.482Z,34.23
2019-02-03T02:00:16.501Z,33.13
2019-02-03T02:02:45.857Z,32.43
2019-02-03T02:05:15.455Z,31.07
2019-02-03T02:07:51.197Z,31.40
2019-02-03T02:10:17.671Z,29.37
2019-02-03T02:12:46.524Z,29.07
2019-02-03T02:15:21.632Z,28.43
2019-02-03T02:17:51.171Z,30.60
2019-02-03T02:20:20.938Z,27.63
2019-02-03T02:22:49.841Z,25.97
2019-02-03T02:25:18.802Z,26.27
2019-02-03T02:27:47.763Z,26.00
2019-02-03T02:30:30.060Z,26.97
2019-02-03T02:32:58.925Z,27.83
2019-02-03T02:35:27.826Z,27.00
2019-02-03T02:38:05.693Z,25.03
2019-02-03T02:40:27.207Z,25.80
2019-02-03T02:42:56.436Z,26.50
2019-02-03T02:45:25.732Z,27.57
2019-02-03T02:47:54.657Z,27.87
2019-02-03T02:50:30.904Z,28.70
2019-02-03T02:53:00.279Z,27.90
2019-02-03T02:55:29.648Z,27.37
2019-02-03T02:57:58.541Z,25.43
2019-02-03T03:00:27.501Z,26.43
2019-02-03T03:02:56.382Z,29.30
2019-02-03T03:05:25.280Z,27.20
2019-02-03T03:07:54.182Z,26.30
2019-02-03T03:10:23.831Z,25.80
2019-02-03T03:12:52.841Z,24.20
2019-02-03T03:15:22.344Z,25.07
2019-02-03T03:17:51.471Z,24.30
2019-02-03T03:20:39.369Z,24.27
2019-02-03T03:23:08.373Z,23.30
2019-02-03T03:25:37.752Z,26.00
2019-02-03T03:28:06.710Z,24.30
2019-02-03T03:30:35.932Z,22.87
2019-02-03T03:33:04.891Z,23.07
2019-02-03T03:35:34.481Z,23.13
2019-02-03T03:38:03.628Z,23.60
2019-02-03T03:40:32.863Z,22.77
2019-02-03T03:43:02.176Z,23.27
2019-02-03T03:45:31.088Z,22.83
2019-02-03T03:48:00.303Z,25.20
2019-02-03T03:50:29.211Z,22.90
2019-02-03T03:52:58.113Z,22.60
2019-02-03T03:55:27.030Z,22.70
2019-02-03T03:57:56.014Z,23.67
2019-02-03T04:00:25.617Z,22.97
2019-02-03T04:02:55.006Z,22.93
2019-02-03T04:05:23.935Z,20.80
2019-02-03T04:07:53.037Z,21.70
2019-02-03T04:10:31.402Z,21.97
2019-02-03T04:13:00.636Z,22.00
2019-02-03T04:15:29.542Z,21.43
2019-02-03T04:17:58.426Z,23.47
2019-02-03T04:20:28.195Z,20.43
2019-02-03T04:22:57.515Z,22.43
2019-02-03T04:25:32.906Z,22.60
2019-02-03T04:28:02.245Z,23.67
2019-02-03T04:30:31.701Z,22.80
2019-02-03T04:33:01.014Z,23.80
2019-02-03T04:35:29.929Z,24.57
2019-02-03T04:37:58.826Z,24.67
2019-02-03T04:40:27.748Z,24.17
2019-02-03T04:42:56.649Z,24.67
2019-02-03T04:45:25.533Z,24.33
2019-02-03T04:47:54.891Z,23.03
2019-02-03T04:50:23.833Z,24.10
2019-02-03T04:52:52.756Z,23.57
2019-02-03T04:55:22.079Z,22.07
2019-02-03T04:57:51.422Z,22.80
2019-02-03T05:00:21.327Z,22.47
2019-02-03T05:02:50.264Z,22.47
2019-02-03T05:05:19.282Z,22.37
2019-02-03T05:07:51.572Z,22.20
2019-02-03T05:10:20.502Z,25.20
2019-02-03T05:12:49.925Z,23.33
2019-02-03T05:15:19.678Z,23.23
2019-02-03T05:17:49.302Z,22.53
2019-02-03T05:20:19.006Z,23.83
2019-02-03T05:22:48.420Z,23.60
2019-02-03T05:25:17.321Z,24.40
2019-02-03T05:27:46.212Z,23.80
2019-02-03T05:30:28.525Z,22.57
2019-02-03T05:32:57.405Z,25.20
2019-02-03T05:35:26.906Z,24.90
2019-02-03T05:37:55.790Z,25.20
2019-02-03T05:40:24.695Z,22.87
2019-02-03T05:42:54.060Z,19.57
2019-02-03T05:45:23.073Z,24.93
2019-02-03T05:47:53.179Z,23.23
2019-02-03T05:50:22.232Z,24.30
2019-02-03T05:52:51.119Z,25.07
2019-02-03T05:55:20.072Z,24.07
2019-02-03T05:57:49.068Z,23.77
2019-02-03T06:00:27.350Z,24.10
2019-02-03T06:02:56.789Z,23.90
2019-02-03T06:05:27.925Z,23.90
2019-02-03T06:07:57.568Z,25.23
2019-02-03T06:10:26.918Z,25.40
2019-02-03T06:12:55.827Z,22.00
2019-02-03T06:15:24.748Z,23.87
2019-02-03T06:17:53.669Z,24.63
2019-02-03T06:20:43.761Z,24.60
2019-02-03T06:23:13.020Z,23.10
2019-02-03T06:26:00.509Z,24.50
2019-02-03T06:28:29.425Z,24.23
2019-02-03T06:31:16.197Z,23.17
2019-02-03T06:33:45.816Z,23.60
2019-02-03T06:36:15.150Z,21.87
2019-02-03T06:38:44.426Z,23.73
2019-02-03T06:41:13.716Z,24.17
2019-02-03T06:47:03.939Z,25.10
2019-02-03T06:49:42.287Z,24.20
2019-02-03T06:52:11.194Z,22.10
2019-02-03T06:54:40.103Z,24.63
2019-02-03T06:57:09.432Z,25.10
2019-02-03T06:59:52.485Z,25.70
2019-02-03T07:02:21.417Z,25.37
2019-02-03T07:04:50.742Z,27.10
2019-02-03T07:07:19.674Z,29.37
2019-02-03T07:10:00.329Z,29.73
2019-02-03T07:12:25.357Z,28.83
2019-02-03T07:14:54.308Z,28.20
2019-02-03T07:17:23.211Z,24.87
2019-02-03T07:19:52.128Z,29.80
2019-02-03T07:22:21.035Z,27.77
2019-02-03T07:25:09.002Z,31.80
2019-02-03T07:27:40.201Z,30.40
2019-02-03T07:30:15.527Z,29.03
2019-02-03T07:32:56.603Z,27.07
2019-02-03T07:35:26.057Z,30.20
2019-02-03T07:38:00.055Z,30.20
2019-02-03T07:40:29.014Z,32.67
2019-02-03T07:43:04.838Z,34.13
2019-02-03T07:45:33.766Z,33.23
2019-02-03T07:48:13.750Z,32.20
2019-02-03T07:50:42.711Z,33.80
2019-02-03T07:54:07.723Z,35.97
2019-02-03T07:56:28.296Z,29.87
2019-02-03T07:59:13.751Z,32.87
2019-02-03T08:01:42.695Z,33.93
2019-02-03T08:04:11.616Z,34.03
2019-02-03T08:06:40.542Z,34.43
2019-02-03T08:09:19.727Z,36.30
2019-02-03T08:11:49.000Z,32.83
2019-02-03T08:14:17.868Z,34.13
2019-02-03T08:16:46.762Z,34.83
2019-02-03T08:19:15.703Z,35.43
2019-02-03T08:21:45.032Z,33.53
2019-02-03T08:24:13.960Z,35.30
2019-02-03T08:26:43.204Z,35.60
2019-02-03T08:29:14.631Z,36.37
2019-02-03T08:31:43.032Z,35.07
2019-02-03T08:34:12.636Z,35.03
2019-02-03T08:37:02.727Z,36.07
2019-02-03T08:39:31.592Z,36.17
2019-02-03T08:42:00.534Z,36.30
2019-02-03T08:44:29.467Z,34.00
2019-02-03T08:46:58.453Z,34.60
2019-02-03T08:49:36.679Z,33.17
2019-02-03T08:52:05.628Z,32.93
2019-02-03T08:54:46.399Z,32.73
2019-02-03T08:57:05.087Z,29.00
2019-02-03T08:59:34.092Z,27.53
2019-02-03T09:02:04.698Z,30.20
2019-02-03T09:04:40.622Z,29.27
2019-02-03T09:07:14.892Z,28.47
2019-02-03T09:09:58.488Z,27.40
2019-02-03T09:12:27.333Z,28.63
2019-02-03T09:15:02.569Z,26.37
2019-02-03T09:17:31.885Z,29.53
2019-02-03T09:20:00.774Z,26.70
2019-02-03T09:22:29.688Z,25.27
2019-02-03T09:24:58.830Z,25.73
2019-02-03T09:27:27.737Z,24.93
2019-02-03T09:30:13.491Z,27.07
2019-02-03T09:32:42.833Z,26.27
2019-02-03T09:35:12.230Z,28.30
2019-02-03T09:38:04.083Z,25.70
2019-02-03T09:40:47.260Z,24.00
2019-02-03T09:43:17.488Z,25.20
2019-02-03T09:45:46.362Z,24.37
2019-02-03T09:48:15.313Z,22.87
2019-02-03T09:50:44.927Z,23.27
2019-02-03T09:53:13.789Z,25.50
2019-02-03T09:55:42.748Z,22.03
2019-02-03T09:58:11.662Z,22.90
2019-02-03T10:00:40.536Z,24.13
2019-02-03T10:03:15.855Z,22.03
2019-02-03T10:05:57.036Z,22.10
2019-02-03T10:08:26.487Z,21.87
2019-02-03T10:10:55.443Z,22.57
2019-02-03T10:13:24.672Z,19.73
2019-02-03T10:15:53.548Z,20.73
2019-02-03T10:18:31.506Z,21.23
2019-02-03T10:21:00.973Z,19.27
2019-02-03T10:23:29.940Z,20.00
2019-02-03T10:25:58.923Z,20.30
2019-02-03T10:28:28.266Z,19.17
2019-02-03T10:30:57.174Z,18.20
2019-02-03T10:36:38.261Z,17.37
2019-02-03T10:39:08.986Z,19.30
2019-02-03T10:41:38.306Z,17.00
2019-02-03T10:44:07.300Z,16.70
2019-02-03T10:46:36.277Z,18.53
2019-02-03T10:49:05.459Z,28.63
2019-02-03T10:51:37.327Z,17.00
2019-02-03T10:54:06.644Z,17.87
2019-02-03T10:56:40.097Z,16.93
2019-02-03T10:59:09.003Z,16.17
2019-02-03T11:01:38.340Z,17.77
2019-02-03T11:04:07.309Z,17.57
2019-02-03T11:06:36.189Z,16.40
2019-02-03T11:09:09.083Z,15.30
2019-02-03T11:11:37.985Z,18.30
2019-02-03T11:14:07.055Z,16.70
2019-02-03T11:16:47.422Z,14.70
2019-02-03T11:19:16.731Z,16.20
2019-02-03T11:21:46.243Z,15.87
2019-02-03T11:24:15.166Z,15.40
2019-02-03T11:26:44.495Z,15.30
2019-02-03T11:29:13.726Z,15.17
2019-02-03T11:31:42.673Z,14.67
2019-02-03T11:34:22.592Z,15.20
2019-02-03T11:36:51.501Z,15.23
2019-02-03T11:39:20.437Z,15.20
2019-02-03T11:41:50.150Z,14.60
2019-02-03T11:44:19.455Z,16.23
2019-02-03T11:46:48.407Z,14.43
2019-02-03T11:49:17.325Z,15.80
2019-02-03T11:51:54.521Z,14.77
2019-02-03T11:54:23.457Z,14.50
2019-02-03T11:57:00.496Z,15.20
2019-02-03T11:59:29.593Z,15.13
2019-02-03T12:01:58.573Z,15.30
2019-02-03T12:04:27.891Z,15.30
2019-02-03T12:06:57.207Z,15.30
2019-02-03T12:09:27.381Z,15.97
2019-02-03T12:12:01.121Z,14.10
2019-02-03T12:14:27.568Z,14.60
2019-02-03T12:16:56.454Z,15.87
2019-02-03T12:19:25.470Z,15.10
2019-02-03T12:21:54.764Z,14.57
2019-02-03T12:24:23.643Z,14.93
2019-02-03T12:26:52.679Z,15.57
2019-02-03T12:29:21.872Z,15.30
2019-02-03T12:31:51.195Z,15.53
2019-02-03T12:34:20.538Z,15.10
2019-02-03T12:36:49.483Z,15.40
2019-02-03T12:39:18.695Z,14.87
2019-02-03T12:41:48.287Z,14.63
2019-02-03T12:44:20.146Z,15.03
2019-02-03T12:46:49.036Z,15.90
2019-02-03T12:49:18.377Z,14.43
2019-02-03T12:54:46.652Z,14.90
2019-02-03T12:57:15.617Z,16.07
2019-02-03T12:59:47.753Z,14.33
2019-02-03T13:02:16.676Z,13.93
2019-02-03T13:04:45.578Z,14.47
2019-02-03T13:07:14.649Z,14.93
2019-02-03T13:09:44.313Z,16.90
2019-02-03T13:12:24.928Z,18.13
2019-02-03T13:14:50.739Z,15.43
2019-02-03T13:17:20.114Z,16.47
2019-02-03T13:19:49.544Z,16.50
2019-02-03T13:22:18.453Z,19.37
2019-02-03T13:24:50.473Z,18.20
2019-02-03T13:27:38.713Z,18.07
2019-02-03T13:30:20.011Z,17.93
2019-02-03T13:32:49.056Z,17.33
2019-02-03T13:35:18.155Z,18.00
2019-02-03T13:37:55.461Z,19.67
2019-02-03T13:40:35.633Z,18.50
2019-02-03T13:43:05.317Z,18.53
2019-02-03T13:45:47.736Z,20.40
2019-02-03T13:48:16.657Z,20.40
2019-02-03T13:50:45.628Z,20.53
2019-02-03T13:53:14.569Z,19.23
2019-02-03T13:55:43.503Z,19.53
2019-02-03T13:58:12.598Z,20.40
2019-02-03T14:00:56.695Z,20.93
2019-02-03T14:03:25.746Z,19.50
2019-02-03T14:06:00.743Z,19.13
2019-02-03T14:08:33.010Z,20.40
2019-02-03T14:11:01.974Z,20.53
2019-02-03T14:16:55.591Z,21.33
2019-02-03T14:19:24.884Z,21.30
2019-02-03T14:21:54.230Z,19.63
2019-02-03T14:24:23.455Z,20.40
2019-02-03T14:26:52.352Z,20.40
2019-02-03T14:29:21.259Z,21.87
2019-02-03T14:31:50.155Z,21.90
2019-02-03T14:34:27.814Z,20.40
2019-02-03T14:36:57.044Z,20.70
2019-02-03T14:39:25.967Z,21.07
2019-02-03T14:41:54.909Z,20.27
2019-02-03T14:44:24.257Z,19.77
2019-02-03T14:46:53.242Z,22.10
2019-02-03T14:49:33.460Z,21.27
2019-02-03T14:52:02.985Z,20.90
2019-02-03T14:54:32.137Z,22.03
2019-02-03T14:57:01.099Z,21.40
2019-02-03T14:59:30.073Z,21.90
2019-02-03T15:01:59.823Z,22.70
2019-02-03T15:04:28.795Z,22.97
2019-02-03T15:06:57.849Z,22.77
2019-02-03T15:09:26.874Z,22.20
2019-02-03T15:12:17.010Z,23.17
2019-02-03T15:14:50.167Z,24.03
2019-02-03T15:17:21.289Z,22.17
2019-02-03T15:19:50.269Z,22.27
2019-02-03T15:22:19.665Z,23.37
2019-02-03T15:24:48.906Z,23.00
2019-02-03T15:27:17.902Z,21.43
2019-02-03T15:29:46.828Z,21.87
2019-02-03T15:32:16.145Z,22.90
2019-02-03T15:34:45.296Z,21.80
2019-02-03T15:37:14.225Z,21.67
2019-02-03T15:39:44.272Z,22.70
2019-02-03T15:42:13.175Z,21.70
2019-02-03T15:44:42.170Z,21.27
2019-02-03T15:47:11.163Z,20.13
2019-02-03T15:49:40.160Z,22.70
2019-02-03T15:52:09.562Z,22.20
2019-02-03T15:54:38.463Z,22.20
2019-02-03T15:57:07.389Z,20.70
2019-02-03T15:59:48.548Z,22.50
2019-02-03T16:02:17.928Z,20.67
2019-02-03T16:05:16.349Z,20.53
2019-02-03T16:07:47.940Z,21.90
2019-02-03T16:10:17.829Z,22.20
2019-02-03T16:12:47.022Z,22.03
2019-02-03T16:15:24.396Z,20.90
2019-02-03T16:18:26.978Z,22.10
2019-02-03T16:20:55.897Z,21.67
2019-02-03T16:23:24.968Z,20.47
2019-02-03T16:25:53.914Z,20.10
2019-02-03T16:28:22.859Z,21.13
2019-02-03T16:31:24.218Z,22.67
2019-02-03T16:33:53.176Z,20.93
2019-02-03T16:36:22.266Z,19.43
2019-02-03T16:38:51.687Z,21.47
2019-02-03T16:41:20.678Z,20.73
2019-02-03T16:43:55.546Z,21.63
2019-02-03T16:46:25.751Z,20.33
2019-02-03T16:48:54.663Z,20.33
2019-02-03T16:51:23.601Z,18.90
2019-02-03T16:53:53.552Z,19.07
2019-02-03T16:56:22.955Z,21.10
2019-02-03T16:58:54.481Z,18.93
2019-02-03T17:01:33.290Z,19.40
2019-02-03T17:04:02.257Z,18.80
2019-02-03T17:10:00.525Z,18.93
2019-02-03T17:12:29.401Z,18.80
2019-02-03T17:14:58.712Z,18.60
2019-02-03T17:17:27.669Z,19.70
2019-02-03T17:19:57.019Z,18.27
2019-02-03T17:22:26.687Z,19.37
2019-02-03T17:24:55.609Z,20.33
2019-02-03T17:27:25.050Z,18.50
2019-02-03T17:29:53.940Z,17.87
2019-02-03T17:32:34.646Z,17.80
2019-02-03T17:35:04.190Z,18.23
2019-02-03T17:37:38.360Z,16.53
2019-02-03T17:40:14.112Z,17.30
2019-02-03T17:42:55.463Z,16.90
2019-02-03T17:45:51.790Z,16.37
2019-02-03T17:51:39.085Z,17.07
2019-02-03T17:54:08.041Z,17.30
2019-02-03T17:57:13.626Z,17.20
2019-02-03T17:59:42.895Z,17.00
2019-02-03T18:02:12.047Z,17.20
2019-02-03T18:04:43.121Z,17.27
2019-02-03T18:07:12.084Z,16.53
2019-02-03T18:09:50.484Z,16.93
2019-02-03T18:12:19.428Z,16.83
2019-02-03T18:14:48.323Z,17.67
2019-02-03T18:17:17.768Z,17.20
2019-02-03T18:19:47.128Z,17.53
2019-02-03T18:22:16.101Z,19.10
2019-02-03T18:24:45.002Z,17.77
2019-02-03T18:27:13.906Z,17.70
2019-02-03T18:29:42.843Z,18.10
2019-02-03T18:32:16.281Z,15.23
2019-02-03T18:34:45.211Z,17.00
2019-02-03T18:37:14.219Z,16.13
2019-02-03T18:39:44.189Z,16.50
2019-02-03T18:42:13.088Z,14.40
2019-02-03T18:44:48.161Z,15.30
2019-02-03T18:47:17.260Z,15.73
2019-02-03T18:49:46.505Z,15.47
2019-02-03T18:52:15.436Z,15.10
2019-02-03T18:54:47.536Z,13.30
2019-02-03T18:57:16.890Z,13.20
2019-02-03T18:59:46.483Z,12.10
2019-02-03T19:02:15.806Z,12.50
2019-02-03T19:04:44.697Z,10.87
2019-02-03T19:07:19.742Z,12.27
2019-02-03T19:09:48.650Z,11.13
2019-02-03T19:12:17.951Z,11.20
2019-02-03T19:14:47.691Z,11.10
2019-02-03T19:17:16.777Z,11.80
2019-02-03T19:19:45.693Z,12.03
2019-02-03T19:22:14.575Z,12.10
2019-02-03T19:24:43.518Z,11.40
2019-02-03T19:27:15.603Z,11.23
2019-02-03T19:30:17.816Z,10.23
2019-02-03T19:32:46.698Z,9.53
2019-02-03T19:35:25.277Z,10.20
2019-02-03T19:38:06.576Z,9.90
2019-02-03T19:40:34.332Z,10.20
2019-02-03T19:43:03.256Z,10.00
2019-02-03T19:45:32.193Z,9.43
2019-02-03T19:48:04.794Z,8.97
2019-02-03T19:50:34.080Z,9.40
2019-02-03T19:53:02.989Z,10.07
2019-02-03T19:55:59.871Z,9.50
2019-02-03T19:58:28.778Z,10.07
2019-02-03T20:00:57.695Z,10.20
2019-02-03T20:03:28.418Z,9.10
2019-02-03T20:05:57.144Z,9.50
2019-02-03T20:08:26.073Z,8.60
2019-02-03T20:10:55.063Z,9.33
2019-02-03T20:13:23.983Z,9.00
2019-02-03T20:15:52.889Z,9.47
2019-02-03T20:18:45.284Z,10.97
2019-02-03T20:21:14.189Z,11.00
2019-02-03T20:23:43.563Z,10.10
2019-02-03T20:26:12.682Z,10.80
2019-02-03T20:28:41.644Z,11.03
2019-02-03T20:31:11.327Z,10.80
2019-02-03T20:33:40.248Z,11.60
2019-02-03T20:36:09.314Z,10.90
2019-02-03T20:38:38.246Z,10.40
2019-02-03T20:41:07.167Z,9.87
2019-02-03T20:43:36.158Z,9.60
2019-02-03T20:46:05.529Z,9.17
2019-02-03T20:49:02.473Z,9.10
2019-02-03T20:51:32.458Z,8.43
2019-02-03T20:54:05.028Z,8.83
2019-02-03T20:56:33.937Z,8.73
2019-02-03T20:59:03.178Z,8.43
2019-02-03T21:01:32.071Z,8.53
2019-02-03T21:04:00.934Z,8.43
2019-02-03T21:06:33.002Z,8.37
2019-02-03T21:09:02.016Z,9.17
2019-02-03T21:11:30.926Z,7.47
2019-02-03T21:14:00.183Z,7.80
2019-02-03T21:16:31.107Z,8.30
2019-02-03T21:19:00.019Z,8.47
2019-02-03T21:21:43.158Z,8.30
2019-02-03T21:24:12.543Z,7.60
2019-02-03T21:26:41.728Z,7.30
2019-02-03T21:29:10.674Z,7.30
2019-02-03T21:31:39.645Z,7.37
2019-02-03T21:34:09.440Z,7.20
2019-02-03T21:36:38.738Z,8.03
2019-02-03T21:39:08.946Z,8.13
2019-02-03T21:41:44.134Z,7.53
2019-02-03T21:44:13.170Z,7.50
2019-02-03T21:46:42.590Z,7.97
2019-02-03T21:49:11.451Z,8.23
2019-02-03T21:51:40.852Z,8.53
2019-02-03T21:54:09.758Z,7.17
2019-02-03T21:56:38.726Z,7.57
2019-02-03T21:59:07.599Z,7.90
2019-02-03T22:01:37.225Z,7.70
2019-02-03T22:07:31.896Z,7.97
2019-02-03T22:10:01.219Z,8.40
2019-02-03T22:12:30.510Z,7.40
2019-02-03T22:14:59.857Z,7.23
2019-02-03T22:17:36.951Z,7.20
2019-02-03T22:20:07.320Z,7.03
2019-02-03T22:22:36.282Z,7.50
2019-02-03T22:28:19.424Z,7.73
2019-02-03T22:30:48.349Z,9.17
2019-02-03T22:33:17.250Z,8.00
2019-02-03T22:35:46.618Z,7.70
2019-02-03T22:38:15.880Z,7.20
2019-02-03T22:40:44.797Z,6.17
2019-02-03T22:43:16.819Z,6.23
2019-02-03T22:45:45.705Z,7.43
2019-02-03T22:48:14.653Z,6.70
2019-02-03T22:50:43.912Z,7.70
2019-02-03T22:53:13.136Z,6.70
2019-02-03T22:55:42.502Z,7.80
2019-02-03T23:01:30.250Z,6.43
2019-02-03T23:04:10.596Z,7.40
2019-02-03T23:06:39.845Z,7.70
2019-02-03T23:09:21.260Z,8.03
2019-02-03T23:11:50.265Z,7.00
2019-02-03T23:14:19.159Z,8.30
2019-02-03T23:16:48.075Z,9.20
2019-02-03T23:22:39.986Z,9.47
2019-02-03T23:25:08.909Z,8.37
2019-02-03T23:27:37.850Z,7.93
2019-02-03T23:30:08.965Z,7.97
2019-02-03T23:32:37.983Z,9.20
2019-02-03T23:35:06.923Z,7.70
2019-02-03T23:37:36.169Z,8.87
2019-02-03T23:40:06.321Z,8.90
2019-02-03T23:42:35.658Z,8.83
2019-02-03T23:45:05.439Z,9.30
2019-02-03T23:47:34.399Z,8.33
2019-02-03T23:50:04.613Z,9.10
2019-02-03T23:52:41.676Z,8.83
2019-02-03T23:58:08.572Z,8.50
